Main page
METAR-TAF:

METAR-TAF

Airports :

Lydd, England

Lydd Airport

latitude: 50-57N, longitude: 000-56E, elevation: 3 m

Current weather observation

The report was made 31 minutes ago, at 04:20 UTC
Wind 14 kt from the West
Temperature 11°C
Humidity 82%
Pressure 1009 hPa
Visibility 10 km or more

METAR: EGMD 220420Z AUTO 26014KT 9999 NCD 11/08 Q1009

Time: 05:51 (04:51 UTC)

Forecast

The report was made 2 hours and 56 minutes ago, at 01:55 UTC
Forecast valid from 22 at 03 UTC to 22 at 12 UTC
Wind 16 kt from the West
Visibility 10 km or more
Few clouds at a height of 3000 ft
Probability 30% :
Temporary
from 22 at 03 UTC to 22 at 12 UTC
Wind 19 kt from the West with gusts up to 29 kt

TAF: EGMD 220155Z 2203/2212 26016KT 9999 FEW030 PROB30 TEMPO 2203/2212 26019G29KT

Weather observations and forecasts of more than 4000 airports (METAR and TAF reports).

The available stations are represented by yellow and red dots on the map.

Hover mouse over dot to see the name of the station.

Then click to see weather observations and forecasts.

To change the map : click on the green buttons with a black cross to zoom in, on the green button with a dash to zoom out, or on the green arrows for adjacent maps.


METAR-TAF: